Time;durP1;ratioP1;P1;durP2;ratioP2;P2;SDS_P1;SDS_P2;PMS_P1;PMS_P2;Temp;Humidity;BMP_temperature;BMP_pressure;BME280_temperature;BME280_humidity;BME280_pressure;Samples;Min_cycle;Max_cycle;Signal;HPM_P1;HPM_P2
2022/11/14 00:01:15;;;;;;;5.75;5.28;;;;;;;3.96;100.00;98561.44;4134591;28;20661;-46
2022/11/14 00:03:17;;;;;;;5.15;4.65;;;;;;;3.98;100.00;98559.34;4136538;28;20699;-45
2022/11/14 00:05:19;;;;;;;9.45;6.32;;;;;;;4.06;100.00;98561.84;4122630;28;20206;-45
2022/11/14 00:07:21;;;;;;;6.10;5.50;;;;;;;4.14;100.00;98558.94;4130384;28;20198;-45
2022/11/14 00:09:27;;;;;;;6.72;5.35;;;;;;;4.10;100.00;98562.25;4122516;28;21513;-46
2022/11/14 00:11:28;;;;;;;7.13;6.47;;;;;;;4.05;100.00;98560.19;4137270;28;20209;-46
2022/11/14 00:13:30;;;;;;;5.88;5.18;;;;;;;4.06;100.00;98561.84;4137610;28;20231;-46
2022/11/14 00:15:32;;;;;;;7.03;6.38;;;;;;;4.12;100.00;98557.47;4136494;28;20207;-46
2022/11/14 00:17:33;;;;;;;5.97;5.38;;;;;;;4.12;100.00;98552.91;4130557;28;20229;-45
2022/11/14 00:19:35;;;;;;;8.88;7.03;;;;;;;4.15;100.00;98555.16;4134188;28;20786;-46
2022/11/14 00:21:39;;;;;;;8.57;6.40;;;;;;;4.07;100.00;98555.38;4135411;28;20223;-45
2022/11/14 00:23:41;;;;;;;8.63;6.05;;;;;;;4.11;100.00;98553.94;4133591;28;20257;-46
2022/11/14 00:25:44;;;;;;;8.45;7.10;;;;;;;4.15;100.00;98563.28;4132661;28;20301;-46
2022/11/14 00:27:45;;;;;;;7.38;6.70;;;;;;;4.08;100.00;98558.94;4139030;28;20221;-46
2022/11/14 00:29:47;;;;;;;6.90;6.30;;;;;;;4.00;100.00;98559.97;4118534;28;20212;-46
2022/11/14 00:31:49;;;;;;;6.57;6.07;;;;;;;3.95;100.00;98554.34;4118260;28;20207;-47
2022/11/14 00:33:50;;;;;;;7.65;6.28;;;;;;;3.95;100.00;98548.09;4121833;28;20719;-46
2022/11/14 00:35:53;;;;;;;6.07;5.47;;;;;;;3.90;100.00;98550.59;4136191;28;20644;-46
2022/11/14 00:37:55;;;;;;;5.70;5.20;;;;;;;3.89;100.00;98549.78;4130945;28;21035;-48
2022/11/14 00:39:57;;;;;;;6.93;6.35;;;;;;;3.93;100.00;98551.00;4132020;28;20293;-46
2022/11/14 00:41:58;;;;;;;6.85;6.25;;;;;;;3.95;100.00;98548.91;4134667;28;20348;-46
2022/11/14 00:44:00;;;;;;;6.85;6.13;;;;;;;4.01;100.00;98548.09;4150504;28;20773;-45
2022/11/14 00:46:02;;;;;;;6.50;5.88;;;;;;;3.91;100.00;98541.44;4136007;28;20783;-45
2022/11/14 00:48:04;;;;;;;6.22;5.60;;;;;;;3.96;100.00;98545.19;4135545;28;20925;-46
2022/11/14 00:50:06;;;;;;;6.88;6.28;;;;;;;3.91;100.00;98539.56;4133995;28;20231;-46
2022/11/14 00:52:08;;;;;;;7.60;6.97;;;;;;;3.89;100.00;98544.38;4131868;28;20217;-46
2022/11/14 00:54:10;;;;;;;5.88;5.38;;;;;;;4.01;100.00;98548.09;4136808;28;20223;-46
2022/11/14 00:56:11;;;;;;;6.93;6.20;;;;;;;3.99;100.00;98539.34;4133392;28;20296;-46
2022/11/14 00:58:13;;;;;;;6.43;5.90;;;;;;;3.99;100.00;98539.34;4149380;28;20293;-46
2022/11/14 01:00:15;;;;;;;5.22;4.82;;;;;;;4.02;100.00;98536.25;4138268;28;20305;-45
2022/11/14 01:02:16;;;;;;;6.32;5.72;;;;;;;4.03;100.00;98534.34;4117064;28;20614;-46
2022/11/14 01:04:18;;;;;;;7.53;6.82;;;;;;;4.07;100.00;98525.59;4151331;28;20300;-45
2022/11/14 01:06:20;;;;;;;6.20;5.70;;;;;;;4.02;100.00;98525.41;4122575;28;20220;-46
2022/11/14 01:08:21;;;;;;;6.05;5.55;;;;;;;4.05;100.00;98525.00;4139905;28;20611;-45
2022/11/14 01:10:23;;;;;;;7.40;6.65;;;;;;;4.01;100.00;98507.50;4138018;28;20399;-45
2022/11/14 01:12:25;;;;;;;6.20;5.43;;;;;;;4.09;100.00;98510.00;4136593;28;20229;-45
2022/11/14 01:14:27;;;;;;;5.05;4.55;;;;;;;4.07;100.00;98511.25;4135240;28;20205;-45
2022/11/14 01:16:28;;;;;;;6.13;5.63;;;;;;;4.01;100.00;98514.78;4144376;28;20201;-46
2022/11/14 01:18:31;;;;;;;5.70;5.20;;;;;;;4.06;100.00;98513.13;4151428;28;20521;-46
2022/11/14 01:20:33;;;;;;;6.60;5.95;;;;;;;4.02;100.00;98511.88;4134105;28;20293;-45
2022/11/14 01:22:34;;;;;;;7.18;6.57;;;;;;;4.01;100.00;98515.59;4129184;28;20225;-46
2022/11/14 01:24:36;;;;;;;7.03;6.32;;;;;;;4.01;100.00;98526.44;4134513;28;20216;-45
2022/11/14 01:26:38;;;;;;;6.50;6.00;;;;;;;4.11;100.00;98524.16;4134272;28;22100;-46
2022/11/14 01:28:40;;;;;;;6.88;6.30;;;;;;;4.00;100.00;98516.66;4133197;28;20620;-45
2022/11/14 01:30:42;;;;;;;7.00;6.30;;;;;;;4.07;100.00;98520.19;4135172;28;20662;-46
2022/11/14 01:32:43;;;;;;;6.32;5.70;;;;;;;3.67;100.00;98523.09;4135635;28;20241;-45
2022/11/14 01:34:45;;;;;;;5.65;5.00;;;;;;;3.63;100.00;98528.09;4122719;28;20214;-46
2022/11/14 01:36:47;;;;;;;8.00;6.10;;;;;;;3.51;100.00;98528.88;4139340;28;20317;-46
2022/11/14 01:38:52;;;;;;;7.18;6.18;;;;;;;3.34;100.00;98523.03;4133750;28;20570;-45
2022/11/14 01:40:54;;;;;;;6.65;6.05;;;;;;;3.41;100.00;98513.06;4133606;28;20252;-45
2022/11/14 01:43:30;;;;;;;7.35;6.70;;;;;;;3.57;100.00;98518.09;4134499;28;20996;-45
2022/11/14 01:45:57;;;;;;;6.10;5.22;;;;;;;3.67;100.00;98518.50;4133580;28;20511;-45
2022/11/14 01:47:59;;;;;;;6.75;6.15;;;;;;;3.66;100.00;98516.84;4144070;28;20714;-45
2022/11/14 01:50:05;;;;;;;6.97;6.28;;;;;;;3.75;100.00;98512.06;4136854;28;20651;-45
2022/11/14 01:52:12;;;;;;;7.47;6.75;;;;;;;3.82;100.00;98499.38;4135453;28;20237;-45
2022/11/14 01:54:25;;;;;;;6.00;5.50;;;;;;;3.92;100.00;98489.81;4137540;28;20729;-45
2022/11/14 01:56:31;;;;;;;7.45;6.30;;;;;;;3.96;100.00;98473.97;4133770;28;20216;-45
2022/11/14 01:58:34;;;;;;;6.63;5.93;;;;;;;4.00;100.00;98477.94;4137711;28;20220;-45
2022/11/14 02:00:36;;;;;;;7.00;6.30;;;;;;;4.01;100.00;98466.88;4134293;28;20609;-46
2022/11/14 02:02:38;;;;;;;9.65;6.30;;;;;;;4.08;100.00;98467.72;4133128;28;20229;-46
2022/11/14 02:04:43;;;;;;;5.78;5.25;;;;;;;4.05;100.00;98473.56;4131522;28;20197;-45
2022/11/14 02:06:45;;;;;;;6.65;6.03;;;;;;;4.01;100.00;98472.28;4148512;28;20215;-45
2022/11/14 02:08:47;;;;;;;5.80;5.30;;;;;;;4.02;100.00;98475.84;4140685;28;20288;-45
2022/11/14 02:10:49;;;;;;;7.22;6.53;;;;;;;4.04;100.00;98463.78;4136462;28;20235;-46
2022/11/14 02:12:52;;;;;;;6.45;5.85;;;;;;;4.10;100.00;98475.63;4137317;28;20659;-46
2022/11/14 02:14:55;;;;;;;5.78;5.18;;;;;;;4.15;100.00;98473.13;4133907;28;20675;-46
2022/11/14 02:16:57;;;;;;;5.82;5.32;;;;;;;4.13;100.00;98465.22;4134400;28;20209;-46
2022/11/14 02:19:18;;;;;;;7.32;5.63;;;;;;;4.19;100.00;98458.94;4136036;28;20217;-45
2022/11/14 02:21:20;;;;;;;5.80;4.68;;;;;;;4.15;100.00;98463.13;4147529;28;20204;-46
2022/11/14 02:23:29;;;;;;;7.32;6.57;;;;;;;4.16;100.00;98456.69;4137997;28;20328;-46
2022/11/14 02:25:31;;;;;;;6.45;5.85;;;;;;;4.18;100.00;98460.00;4136225;28;20942;-45
2022/11/14 02:27:34;;;;;;;6.18;5.57;;;;;;;4.21;100.00;98464.16;4138442;28;20698;-45
2022/11/14 02:29:36;;;;;;;6.57;5.63;;;;;;;4.15;100.00;98457.69;4146910;28;20236;-46
2022/11/14 02:31:37;;;;;;;6.90;6.30;;;;;;;4.20;100.00;98465.22;4133155;28;20678;-46
2022/11/14 02:33:40;;;;;;;6.72;6.03;;;;;;;4.17;100.00;98447.50;4137149;28;20719;-45
2022/11/14 02:35:42;;;;;;;6.13;5.53;;;;;;;4.26;100.00;98443.53;4137548;28;20236;-45
2022/11/14 02:37:44;;;;;;;6.40;5.53;;;;;;;4.24;100.00;98440.22;4138051;28;20343;-45
2022/11/14 02:39:45;;;;;;;6.40;5.90;;;;;;;4.18;100.00;98432.94;4135238;28;20233;-45
2022/11/14 02:41:48;;;;;;;8.32;6.53;;;;;;;4.17;100.00;98431.28;4135651;28;20309;-46
2022/11/14 02:43:50;;;;;;;6.28;5.80;;;;;;;4.26;100.00;98421.84;4149012;28;20330;-46
2022/11/14 02:45:52;;;;;;;7.25;5.30;;;;;;;4.26;100.00;98431.88;4132071;28;20230;-45
2022/11/14 02:47:53;;;;;;;7.28;6.50;;;;;;;4.31;100.00;98418.50;4134072;28;20233;-46
2022/11/14 02:49:55;;;;;;;6.18;5.65;;;;;;;4.42;100.00;98416.00;4134164;28;20336;-45
2022/11/14 02:51:57;;;;;;;7.57;6.63;;;;;;;4.30;100.00;98406.84;4152091;28;20600;-45
2022/11/14 02:53:58;;;;;;;7.32;6.63;;;;;;;4.29;100.00;98416.03;4140330;28;20232;-46
2022/11/14 02:56:00;;;;;;;6.68;5.97;;;;;;;4.29;100.00;98415.19;4131557;28;20618;-45
2022/11/14 02:58:02;;;;;;;7.25;6.43;;;;;;;4.34;100.00;98405.38;4135785;28;20703;-45
2022/11/14 03:00:04;;;;;;;8.40;7.60;;;;;;;4.28;100.00;98408.94;4134043;28;20209;-46
2022/11/14 03:02:13;;;;;;;8.45;6.70;;;;;;;4.33;100.00;98406.41;4139791;28;20247;-45
2022/11/14 03:04:15;;;;;;;8.13;7.30;;;;;;;4.36;100.00;98397.03;4138586;28;20206;-46
2022/11/14 03:06:17;;;;;;;7.75;7.05;;;;;;;4.34;100.00;98405.38;4139073;28;20233;-46
2022/11/14 03:08:18;;;;;;;6.32;5.72;;;;;;;4.23;100.00;98411.47;4153265;28;20239;-45
2022/11/14 03:10:21;;;;;;;7.18;6.50;;;;;;;4.20;100.00;98400.22;4137545;28;20360;-45
2022/11/14 03:12:23;;;;;;;8.23;7.40;;;;;;;4.18;100.00;98403.16;4137575;28;20225;-45
2022/11/14 03:14:24;;;;;;;7.93;5.97;;;;;;;4.18;100.00;98395.03;4135691;28;20328;-46
2022/11/14 03:16:26;;;;;;;5.15;4.75;;;;;;;4.24;100.00;98391.47;4136505;28;20296;-45
2022/11/14 03:18:28;;;;;;;7.35;6.65;;;;;;;4.29;100.00;98388.94;4138719;28;20237;-46
2022/11/14 03:20:30;;;;;;;8.20;5.88;;;;;;;4.33;100.00;98378.53;4137683;28;20209;-46
2022/11/14 03:22:32;;;;;;;7.28;6.68;;;;;;;4.40;100.00;98387.47;4137077;28;20364;-46
2022/11/14 03:24:33;;;;;;;8.32;7.53;;;;;;;4.41;100.00;98384.50;4131773;28;20299;-45
2022/11/14 03:26:35;;;;;;;7.28;6.57;;;;;;;4.44;100.00;98375.97;4139253;28;20648;-45
2022/11/14 03:28:37;;;;;;;7.50;6.72;;;;;;;4.50;100.00;98383.25;4150639;28;20517;-46
2022/11/14 03:30:39;;;;;;;7.72;6.88;;;;;;;4.60;100.00;98386.31;4150047;28;20211;-46
2022/11/14 03:32:40;;;;;;;7.40;6.70;;;;;;;4.53;100.00;98379.28;4150616;28;20228;-46
2022/11/14 03:34:42;;;;;;;7.78;6.28;;;;;;;4.57;100.00;98370.50;4138848;28;20763;-45
2022/11/14 03:36:44;;;;;;;7.38;6.28;;;;;;;4.55;100.00;98377.16;4138456;28;20280;-45
2022/11/14 03:38:46;;;;;;;7.25;6.60;;;;;;;4.55;100.00;98364.47;4139826;28;20213;-45
2022/11/14 03:40:49;;;;;;;6.80;6.18;;;;;;;4.62;100.00;98372.56;4137054;28;20644;-46
2022/11/14 03:42:56;;;;;;;10.48;8.07;;;;;;;4.61;100.00;98373.59;4140687;28;20264;-45
2022/11/14 03:44:57;;;;;;;6.90;6.03;;;;;;;4.60;100.00;98364.63;4137214;28;20644;-46
2022/11/14 03:46:59;;;;;;;6.93;6.22;;;;;;;4.59;100.00;98367.56;4136222;28;20305;-45
2022/11/14 03:49:01;;;;;;;7.03;6.28;;;;;;;4.60;100.00;98364.63;4117381;28;20659;-46
2022/11/14 03:51:03;;;;;;;7.65;6.95;;;;;;;4.66;100.00;98357.53;4129288;28;20210;-45
2022/11/14 03:53:04;;;;;;;8.25;6.50;;;;;;;4.73;100.00;98364.56;4139294;28;20229;-45
2022/11/14 03:55:06;;;;;;;8.65;7.75;;;;;;;4.70;100.00;98359.59;4150411;28;20812;-46
2022/11/14 03:57:08;;;;;;;9.10;6.85;;;;;;;4.65;100.00;98359.41;4133472;28;20320;-45
2022/11/14 03:59:10;;;;;;;7.30;6.60;;;;;;;4.63;100.00;98363.38;4136044;28;20728;-46
2022/11/14 04:01:12;;;;;;;8.05;6.22;;;;;;;4.55;100.00;98361.75;4135099;28;20693;-46
2022/11/14 04:03:14;;;;;;;8.25;6.80;;;;;;;4.62;100.00;98367.13;4136365;28;20323;-46
2022/11/14 04:05:15;;;;;;;9.05;6.20;;;;;;;4.67;100.00;98365.44;4150046;28;20208;-46
2022/11/14 04:07:17;;;;;;;7.40;6.15;;;;;;;4.65;100.00;98359.41;4139141;28;20212;-46
2022/11/14 04:09:19;;;;;;;7.88;6.97;;;;;;;4.67;100.00;98360.00;4135195;28;20205;-46
2022/11/14 04:11:20;;;;;;;6.93;6.22;;;;;;;4.66;100.00;98352.94;4138391;28;20205;-45
2022/11/14 04:13:22;;;;;;;9.40;7.63;;;;;;;4.71;100.00;98350.41;4137429;28;20228;-45
2022/11/14 04:15:24;;;;;;;8.32;7.30;;;;;;;4.74;100.00;98360.81;4153054;28;20526;-45
2022/11/14 04:17:25;;;;;;;8.73;7.97;;;;;;;4.75;100.00;98357.06;4141138;28;20201;-45
2022/11/14 04:19:27;;;;;;;7.57;6.70;;;;;;;4.76;100.00;98357.88;4139127;28;20798;-46
2022/11/14 04:21:29;;;;;;;10.40;7.53;;;;;;;4.80;100.00;98365.34;4136615;28;20212;-46
2022/11/14 04:23:30;;;;;;;8.50;7.75;;;;;;;4.83;100.00;98358.66;4126784;28;20221;-45
2022/11/14 04:25:32;;;;;;;10.63;7.60;;;;;;;4.83;100.00;98354.09;4136084;28;20662;-46
2022/11/14 04:27:34;;;;;;;8.20;6.90;;;;;;;4.91;100.00;98356.53;4137948;28;20288;-46
2022/11/14 04:29:35;;;;;;;9.55;8.73;;;;;;;4.92;100.00;98351.94;4136282;28;20239;-46
2022/11/14 04:31:37;;;;;;;9.85;7.97;;;;;;;4.93;100.00;98350.91;4150509;28;20247;-46
2022/11/14 04:33:39;;;;;;;10.73;9.20;;;;;;;4.95;100.00;98352.34;4134374;28;20240;-46
2022/11/14 04:35:40;;;;;;;10.55;8.88;;;;;;;4.96;100.00;98343.16;4134968;28;21109;-46
2022/11/14 04:37:42;;;;;;;10.35;7.78;;;;;;;5.01;100.00;98340.59;4118279;28;20240;-45
2022/11/14 04:39:44;;;;;;;9.23;8.32;;;;;;;5.04;100.00;98340.19;4136342;28;20633;-46
2022/11/14 04:41:45;;;;;;;12.98;8.07;;;;;;;4.99;100.00;98348.13;4123325;28;20210;-46
2022/11/14 04:43:47;;;;;;;10.65;7.88;;;;;;;5.01;100.00;98337.91;4149292;28;20319;-45
2022/11/14 04:45:51;;;;;;;7.10;6.45;;;;;;;5.02;100.00;98331.44;4134984;28;20211;-46
2022/11/14 04:47:53;;;;;;;7.82;6.93;;;;;;;5.04;100.00;98334.75;4122489;28;20208;-46
2022/11/14 04:49:55;;;;;;;9.00;6.68;;;;;;;5.03;100.00;98343.94;4116579;28;20252;-46
2022/11/14 04:51:56;;;;;;;8.85;6.50;;;;;;;5.07;100.00;98334.31;4138977;28;20340;-46
2022/11/14 04:53:58;;;;;;;10.95;6.85;;;;;;;5.08;100.00;98335.97;4137274;28;20242;-46
2022/11/14 04:56:00;;;;;;;8.32;7.53;;;;;;;5.13;100.00;98338.84;4132157;28;20198;-46
2022/11/14 04:58:02;;;;;;;8.40;7.55;;;;;;;5.12;100.00;98341.81;4135668;28;20552;-46
2022/11/14 05:00:05;;;;;;;13.27;7.85;;;;;;;5.16;100.00;98349.28;4135674;28;20737;-46
2022/11/14 05:02:06;;;;;;;7.50;6.80;;;;;;;5.16;100.00;98350.09;4148770;28;21019;-45
2022/11/14 05:04:08;;;;;;;9.25;7.63;;;;;;;5.02;100.00;98353.16;4137271;28;20200;-45
2022/11/14 05:06:10;;;;;;;8.38;7.50;;;;;;;5.14;100.00;98346.78;4137611;28;20208;-46
2022/11/14 05:08:12;;;;;;;8.52;7.65;;;;;;;5.03;100.00;98331.22;4116731;28;20236;-45
2022/11/14 05:10:13;;;;;;;9.45;7.30;;;;;;;5.09;100.00;98329.53;4138826;28;20244;-45
2022/11/14 05:12:18;;;;;;;11.23;9.20;;;;;;;5.03;100.00;98335.81;4149046;28;20623;-46
2022/11/14 05:14:20;;;;;;;7.00;6.30;;;;;;;5.06;100.00;98331.84;4135806;28;20592;-46
2022/11/14 05:16:21;;;;;;;9.00;8.10;;;;;;;5.09;100.00;98329.53;4134595;28;20292;-46
2022/11/14 05:18:23;;;;;;;7.70;7.00;;;;;;;5.16;100.00;98316.75;4133820;28;20205;-46
2022/11/14 05:20:25;;;;;;;8.30;7.50;;;;;;;5.13;100.00;98316.34;4131841;28;20215;-46
2022/11/14 05:22:26;;;;;;;7.43;6.60;;;;;;;5.15;100.00;98309.66;4135035;28;20253;-47
2022/11/14 05:24:28;;;;;;;8.05;6.97;;;;;;;5.14;100.00;98307.97;4149537;28;20247;-46
2022/11/14 05:26:30;;;;;;;8.63;7.53;;;;;;;5.20;100.00;98304.38;4134419;28;20599;-45
2022/11/14 05:28:32;;;;;;;8.18;7.38;;;;;;;5.20;100.00;98301.66;4133167;28;21015;-46
2022/11/14 05:30:34;;;;;;;7.90;6.70;;;;;;;5.22;100.00;98294.97;4132762;28;20205;-45
2022/11/14 05:32:35;;;;;;;7.82;6.50;;;;;;;5.26;100.00;98307.06;4134935;28;20236;-46
2022/11/14 05:34:37;;;;;;;9.07;8.18;;;;;;;5.26;100.00;98300.78;4137236;28;20734;-46
2022/11/14 05:36:38;;;;;;;11.15;7.75;;;;;;;5.29;100.00;98300.34;4138493;28;20205;-46
2022/11/14 05:38:41;;;;;;;9.02;7.70;;;;;;;5.35;100.00;98296.75;4137291;28;20578;-46
2022/11/14 05:40:43;;;;;;;10.88;9.52;;;;;;;5.41;100.00;98293.97;4136280;28;20205;-47
2022/11/14 05:42:44;;;;;;;9.60;8.70;;;;;;;5.35;100.00;98296.75;4131934;28;20382;-46
2022/11/14 05:44:46;;;;;;;11.18;8.82;;;;;;;5.27;100.00;98297.03;4148993;28;20570;-46
2022/11/14 05:46:48;;;;;;;9.77;8.32;;;;;;;5.30;100.00;98291.16;4121044;28;20202;-46
2022/11/14 05:48:49;;;;;;;9.68;8.73;;;;;;;5.31;100.00;98292.81;4139668;28;20206;-46
2022/11/14 05:50:58;;;;;;;10.95;8.60;;;;;;;5.32;100.00;98287.19;4138905;28;20208;-46
2022/11/14 05:53:00;;;;;;;10.32;7.85;;;;;;;5.33;100.00;98274.44;4134234;28;20233;-45
2022/11/14 05:55:01;;;;;;;9.15;8.23;;;;;;;5.35;100.00;98275.88;4132692;28;20323;-47
2022/11/14 05:57:04;;;;;;;9.63;7.57;;;;;;;5.35;100.00;98280.47;4117210;28;20225;-45
2022/11/14 05:59:05;;;;;;;12.38;9.23;;;;;;;5.38;100.00;98277.31;4136871;28;20221;-46
2022/11/14 06:01:12;;;;;;;13.95;8.20;;;;;;;5.39;100.00;98262.69;4136246;28;20709;-46
2022/11/14 06:03:14;;;;;;;9.63;8.63;;;;;;;5.38;100.00;98264.59;4129782;28;20683;-46
2022/11/14 06:05:16;;;;;;;12.40;8.48;;;;;;;5.42;100.00;98264.97;4133272;28;20216;-45
2022/11/14 06:07:17;;;;;;;9.45;6.80;;;;;;;5.40;100.00;98264.34;4128285;28;20730;-47
2022/11/14 06:09:21;;;;;;;8.45;6.70;;;;;;;5.44;100.00;98266.38;4129738;28;21016;-45
2022/11/14 06:11:22;;;;;;;8.82;7.93;;;;;;;5.60;100.00;98265.81;4135737;28;20660;-47
2022/11/14 06:13:24;;;;;;;9.40;8.32;;;;;;;5.47;100.00;98270.53;4131365;28;20221;-46
2022/11/14 06:15:26;;;;;;;10.95;9.70;;;;;;;5.50;100.00;98275.53;4134103;28;20229;-48
2022/11/14 06:17:28;;;;;;;11.45;10.35;;;;;;;5.56;100.00;98275.44;4132681;28;20217;-46
2022/11/14 06:19:30;;;;;;;10.88;9.50;;;;;;;5.47;100.00;98292.25;4131606;28;20209;-46
2022/11/14 06:21:32;;;;;;;12.00;8.30;;;;;;;5.42;100.00;98284.78;4145071;28;20204;-46
2022/11/14 06:23:34;;;;;;;11.23;9.20;;;;;;;5.44;100.00;98282.66;4123746;28;20218;-46
2022/11/14 06:25:35;;;;;;;10.65;8.35;;;;;;;5.55;100.00;98292.78;4138669;28;20263;-46
2022/11/14 06:27:37;;;;;;;10.00;8.73;;;;;;;5.52;100.00;98300.56;4140482;28;20214;-45
2022/11/14 06:29:39;;;;;;;11.38;9.50;;;;;;;5.53;100.00;98291.34;4135864;28;20220;-45
2022/11/14 06:31:41;;;;;;;10.27;9.27;;;;;;;5.49;100.00;98285.53;4152013;28;20240;-46
2022/11/14 06:33:43;;;;;;;10.75;9.73;;;;;;;5.51;100.00;98283.47;4132098;28;20251;-46
2022/11/14 06:35:45;;;;;;;13.57;9.75;;;;;;;5.56;100.00;98283.59;4136007;28;20264;-46
2022/11/14 06:37:46;;;;;;;14.30;9.07;;;;;;;5.57;100.00;98287.97;4119864;28;20312;-47
2022/11/14 06:39:48;;;;;;;10.30;9.30;;;;;;;5.61;100.00;98278.31;4125923;28;20652;-46
2022/11/14 06:41:50;;;;;;;11.57;10.38;;;;;;;5.56;100.00;98271.94;4135277;28;20214;-45
2022/11/14 06:43:53;;;;;;;13.13;9.27;;;;;;;5.55;100.00;98267.56;4140401;28;20221;-46
2022/11/14 06:45:54;;;;;;;11.40;8.73;;;;;;;5.47;100.00;98271.38;4140473;28;20221;-45
2022/11/14 06:47:59;;;;;;;9.65;8.65;;;;;;;5.53;100.00;98266.94;4121333;28;20261;-46
2022/11/14 06:50:00;;;;;;;12.30;10.43;;;;;;;5.44;100.00;98254.72;4136091;28;20213;-46
2022/11/14 06:52:03;;;;;;;11.60;9.38;;;;;;;5.49;100.00;98257.59;4149490;28;20243;-46
2022/11/14 06:54:05;;;;;;;12.75;9.57;;;;;;;5.46;100.00;98250.72;4150926;28;20315;-45
2022/11/14 06:56:11;;;;;;;12.32;9.57;;;;;;;5.56;100.00;98261.06;4139033;28;20201;-45
2022/11/14 06:58:13;;;;;;;12.48;9.98;;;;;;;5.58;100.00;98261.66;4148709;28;20201;-45
2022/11/14 07:00:15;;;;;;;11.77;10.05;;;;;;;5.58;100.00;98267.09;4135210;28;20245;-45
2022/11/14 07:02:20;;;;;;;10.63;9.63;;;;;;;5.60;100.00;98259.56;4137161;28;20205;-46
2022/11/14 07:04:22;;;;;;;11.23;10.00;;;;;;;5.60;100.00;98259.56;4141477;28;20197;-46
2022/11/14 07:06:25;;;;;;;13.23;10.32;;;;;;;5.61;100.00;98263.91;4137473;28;20300;-46
2022/11/14 07:08:27;;;;;;;9.43;8.10;;;;;;;5.61;100.00;98267.47;4149444;28;20239;-46
2022/11/14 07:10:29;;;;;;;13.23;9.25;;;;;;;5.59;100.00;98263.31;4137334;28;20214;-46
2022/11/14 07:12:31;;;;;;;10.13;8.88;;;;;;;5.65;100.00;98262.44;4137966;28;20232;-46
2022/11/14 07:14:33;;;;;;;12.82;9.77;;;;;;;5.57;100.00;98279.00;4139981;28;20222;-45
2022/11/14 07:16:35;;;;;;;10.65;9.43;;;;;;;5.53;100.00;98275.06;4133189;28;20206;-46
2022/11/14 07:18:37;;;;;;;10.02;8.75;;;;;;;5.63;100.00;98275.41;4129296;28;20217;-45
2022/11/14 07:20:38;;;;;;;14.00;9.40;;;;;;;5.58;100.00;98283.38;4135267;28;20243;-47
2022/11/14 07:22:40;;;;;;;9.75;8.77;;;;;;;5.62;100.00;98279.19;4135773;28;20239;-46
2022/11/14 07:24:42;;;;;;;9.73;8.73;;;;;;;5.66;100.00;98291.22;4136883;28;20281;-45
2022/11/14 07:26:45;;;;;;;10.15;8.90;;;;;;;5.65;100.00;98297.72;4138723;28;20207;-45
2022/11/14 07:28:47;;;;;;;10.93;9.77;;;;;;;5.68;100.00;98294.53;4128142;28;20209;-46
2022/11/14 07:30:58;;;;;;;12.70;10.13;;;;;;;5.69;100.00;98298.94;4137813;28;20213;-46
2022/11/14 07:32:59;;;;;;;12.75;9.15;;;;;;;5.60;100.00;98297.53;4136511;28;20233;-46
2022/11/14 07:35:01;;;;;;;11.32;10.20;;;;;;;5.62;100.00;98290.03;4136911;28;20222;-46
2022/11/14 07:37:03;;;;;;;9.10;8.13;;;;;;;5.71;100.00;98285.97;4137410;28;20272;-45
2022/11/14 07:39:05;;;;;;;12.02;10.13;;;;;;;5.74;100.00;98278.19;4134929;28;20213;-46
2022/11/14 07:41:12;;;;;;;11.52;9.38;;;;;;;5.72;100.00;98288.47;4137055;28;20213;-46
2022/11/14 07:43:13;;;;;;;12.00;9.07;;;;;;;5.76;100.00;98286.13;4140377;28;20263;-45
2022/11/14 07:45:18;;;;;;;9.85;8.85;;;;;;;5.76;100.00;98286.13;4123141;28;20678;-45
2022/11/14 07:47:20;;;;;;;10.15;9.15;;;;;;;5.78;100.00;98289.44;4152948;28;20295;-46
2022/11/14 07:49:22;;;;;;;9.60;8.65;;;;;;;5.83;100.00;98295.06;4152415;28;20300;-46
2022/11/14 07:51:24;;;;;;;10.57;9.55;;;;;;;5.85;100.00;98292.94;4140008;28;20237;-46
2022/11/14 07:53:26;;;;;;;10.93;8.85;;;;;;;5.91;100.00;98295.59;4139246;28;20332;-47
2022/11/14 07:55:28;;;;;;;10.32;9.25;;;;;;;5.91;100.00;98295.59;4150464;28;20236;-46
2022/11/14 07:57:30;;;;;;;10.23;8.93;;;;;;;5.91;100.00;98286.59;4150721;28;20220;-46
2022/11/14 07:59:39;;;;;;;10.20;9.20;;;;;;;5.86;100.00;98294.59;4137130;28;20643;-45
2022/11/14 08:01:40;;;;;;;8.70;7.85;;;;;;;5.91;100.00;98289.31;4135717;28;20209;-46
2022/11/14 08:03:43;;;;;;;8.07;7.28;;;;;;;5.78;100.00;98294.84;4152268;28;20303;-46
2022/11/14 08:05:47;;;;;;;8.88;7.97;;;;;;;5.82;100.00;98299.63;4132201;28;20237;-46
2022/11/14 08:07:51;;;;;;;9.40;8.07;;;;;;;5.85;100.00;98314.66;4134036;28;20226;-45
2022/11/14 08:09:53;;;;;;;10.00;8.95;;;;;;;5.81;100.00;98305.28;4148068;28;20205;-46
2022/11/14 08:11:55;;;;;;;10.15;8.43;;;;;;;5.94;100.00;98311.41;4150592;28;20618;-45
2022/11/14 08:13:57;;;;;;;8.77;7.88;;;;;;;6.02;100.00;98304.88;4151612;28;20288;-46
2022/11/14 08:16:03;;;;;;;8.40;7.40;;;;;;;6.01;100.00;98303.19;4147752;28;20223;-46
2022/11/14 08:18:12;;;;;;;8.57;7.78;;;;;;;5.94;100.00;98316.84;4148989;28;20197;-46
2022/11/14 08:20:14;;;;;;;10.07;8.90;;;;;;;6.02;100.00;98313.00;4149347;28;20205;-46
2022/11/14 08:22:27;;;;;;;8.38;7.57;;;;;;;6.08;100.00;98317.53;4135009;28;20877;-46
2022/11/14 08:24:28;;;;;;;8.10;7.30;;;;;;;6.01;100.00;98314.03;4134584;28;20265;-46
2022/11/14 08:26:30;;;;;;;7.47;6.88;;;;;;;6.09;100.00;98313.75;4139040;28;20664;-46
2022/11/14 08:28:35;;;;;;;8.45;7.57;;;;;;;5.95;100.00;98309.53;4138504;28;20674;-46
2022/11/14 08:30:40;;;;;;;9.32;8.43;;;;;;;5.91;100.00;98302.88;4151252;28;20296;-46
2022/11/14 08:32:42;;;;;;;9.30;7.22;;;;;;;5.93;100.00;98308.91;4135998;28;20268;-46
2022/11/14 08:34:44;;;;;;;8.25;7.45;;;;;;;6.00;100.00;98309.66;4134460;28;20642;-46
2022/11/14 08:36:56;;;;;;;7.97;7.18;;;;;;;6.07;100.00;98305.00;4135820;28;20565;-46
2022/11/14 08:39:01;;;;;;;8.98;7.80;;;;;;;6.07;100.00;98307.72;4139066;28;20205;-46
2022/11/14 08:41:03;;;;;;;7.70;6.57;;;;;;;6.12;100.00;98302.44;4137761;28;20209;-46
2022/11/14 08:43:05;;;;;;;8.25;7.32;;;;;;;6.09;100.00;98308.34;4136126;28;20222;-46
2022/11/14 08:45:14;;;;;;;8.68;7.75;;;;;;;6.14;100.00;98312.03;4142638;28;20269;-45
2022/11/14 08:47:25;;;;;;;9.55;8.65;;;;;;;6.22;100.00;98308.19;4137178;28;20316;-47
2022/11/14 08:49:27;;;;;;;9.60;8.70;;;;;;;6.35;100.00;98316.16;4138834;28;20213;-46
2022/11/14 08:51:28;;;;;;;6.95;6.25;;;;;;;6.41;100.00;98302.47;4127802;28;20194;-46
2022/11/14 08:53:31;;;;;;;9.63;8.23;;;;;;;6.54;100.00;98306.91;4151762;28;20664;-45
2022/11/14 08:55:33;;;;;;;8.77;7.97;;;;;;;6.48;100.00;98305.94;4122811;28;20240;-46
2022/11/14 08:57:35;;;;;;;8.32;7.43;;;;;;;6.44;100.00;98304.75;4139115;28;20256;-45
2022/11/14 08:59:37;;;;;;;8.93;8.02;;;;;;;6.60;100.00;98311.41;4150422;28;20251;-46
2022/11/14 09:01:38;;;;;;;7.40;6.70;;;;;;;6.58;100.00;98308.97;4130645;28;20217;-46
2022/11/14 09:03:40;;;;;;;7.70;6.88;;;;;;;6.45;100.00;98308.28;4147584;28;20233;-45
2022/11/14 09:05:42;;;;;;;9.23;7.75;;;;;;;6.59;100.00;98299.72;4132953;28;20245;-46
2022/11/14 09:07:44;;;;;;;6.22;5.63;;;;;;;6.56;100.00;98299.38;4132016;28;20216;-45
2022/11/14 09:09:46;;;;;;;7.93;7.15;;;;;;;6.50;100.00;98305.72;4130383;28;20209;-47
2022/11/14 09:11:47;;;;;;;7.13;6.47;;;;;;;6.61;100.00;98310.34;4136824;28;20270;-46
2022/11/14 09:13:49;;;;;;;8.43;7.47;;;;;;;6.61;100.00;98313.06;4134965;28;20260;-45
2022/11/14 09:15:51;;;;;;;8.05;7.28;;;;;;;6.61;100.00;98313.06;4149908;28;20212;-45
2022/11/14 09:17:56;;;;;;;7.22;6.63;;;;;;;6.55;100.00;98314.84;4134335;28;20370;-46
2022/11/14 09:19:58;;;;;;;7.97;7.28;;;;;;;6.56;100.00;98311.06;4139254;28;20209;-46
2022/11/14 09:21:59;;;;;;;7.50;6.50;;;;;;;6.58;100.00;98305.41;4134500;28;20229;-48
2022/11/14 09:24:01;;;;;;;9.13;8.32;;;;;;;6.62;100.00;98312.03;4133716;28;20297;-46
2022/11/14 09:26:04;;;;;;;8.23;6.35;;;;;;;6.65;100.00;98303.41;4133020;28;20293;-46
2022/11/14 09:28:06;;;;;;;7.55;6.85;;;;;;;6.70;100.00;98306.28;4150758;28;20251;-46
2022/11/14 09:30:09;;;;;;;7.88;7.18;;;;;;;6.75;100.00;98304.50;4135541;28;21381;-46
2022/11/14 09:32:11;;;;;;;8.05;6.97;;;;;;;6.62;100.00;98301.16;4137622;28;20685;-46
2022/11/14 09:34:12;;;;;;;7.65;7.00;;;;;;;6.73;100.00;98297.66;4150965;28;20715;-46
2022/11/14 09:36:15;;;;;;;8.02;7.32;;;;;;;6.80;100.00;98306.53;4134145;28;20222;-46